Date,TemperatureHighF,TemperatureAvgF,TemperatureLowF,DewpointHighF,DewpointAvgF,DewpointLowF,HumidityHigh,HumidityAvg,HumidityLow,PressureMaxIn,PressureMinIn,WindSpeedMaxMPH,WindSpeedAvgMPH,GustSpeedMaxMPH,PrecipitationSumIn
2013-1-1,39.3,28.9,35.9,37.0,3.8,-99.9,94,69,80,30.72,30.58,13,-226,18,0.00
2013-1-2,42.9,31.0,36.5,36.0,6.1,-99.9,87,63,73,30.58,30.41,18,-199,19,0.00
2013-1-3,43.1,30.9,35.9,36.0,4.6,-99.9,90,62,63,30.41,30.26,17,-210,19,0.00
2013-1-4,42.3,30.0,38.2,42.0,2.8,-99.9,98,70,89,30.49,30.33,17,-257,19,0.00
2013-1-5,40.5,3.4,39.2,39.0,-88.3,-99.9,94,8,93,30.37,30.23,15,-914,17,0.00
2013-1-6,49.3,26.7,40.8,49.0,-13.8,-99.9,100,56,86,30.32,30.11,27,-368,33,0.00
2013-1-7,50.1,32.8,40.7,47.0,3.8,-99.9,98,66,77,30.31,29.95,28,-264,37,0.00
2013-1-8,48.4,22.6,39.3,47.0,-26.4,-99.9,99,48,79,30.32,29.80,22,-474,23,0.00
2013-1-9,44.1,24.3,40.1,39.0,-22.0,-99.9,85,46,68,30.11,29.82,22,-421,24,0.00
2013-1-10,40.6,24.4,36.1,36.0,-16.2,-99.9,90,49,57,30.35,30.11,9,-353,12,0.00
2013-1-11,40.3,35.8,34.0,27.0,22.5,18.0,76,59,44,30.54,30.36,15,5,21,0.00
2013-1-12,36.5,32.6,30.3,29.0,25.4,-99.9,89,77,66,30.66,30.54,11,-6,16,0.00
2013-1-13,36.1,34.0,30.9,31.0,28.6,25.0,91,80,74,30.70,30.64,10,5,12,0.00
2013-1-14,36.8,26.6,35.1,35.0,-1.5,-99.9,94,67,80,30.78,30.65,13,-258,16,0.00
2013-1-15,39.2,28.9,35.5,35.0,1.2,-99.9,93,64,79,30.91,30.78,6,-243,9,0.00
2013-1-16,40.7,28.9,35.7,35.0,1.6,-99.9,90,64,77,30.88,30.74,6,-238,9,0.00
2013-1-17,41.2,31.6,35.4,38.0,11.3,-99.9,96,73,82,30.75,30.49,7,-179,9,0.00
2013-1-18,40.0,28.3,36.6,38.0,0.3,-99.9,98,68,87,30.54,30.45,4,-265,8,0.00
2013-1-19,40.7,38.4,36.6,38.0,36.9,35.0,96,94,88,30.59,30.53,8,2,10,0.00
2013-1-20,39.9,37.8,36.4,38.0,36.9,36.0,98,96,92,30.60,30.48,10,2,13,0.00
2013-1-21,39.7,36.1,33.4,38.0,35.2,33.0,98,96,89,30.48,30.33,8,3,13,0.00
2013-1-22,39.8,36.5,33.9,37.0,34.9,33.0,99,94,85,30.34,30.10,9,2,13,0.00
2013-1-23,44.5,41.4,39.4,42.0,39.3,37.0,97,91,84,30.27,29.99,18,8,23,0.00
2013-1-24,44.7,43.1,41.4,42.0,38.9,36.0,94,85,72,30.37,30.16,29,12,36,0.00
2013-1-25,51.6,44.8,42.9,46.0,42.3,40.0,95,91,82,30.21,30.06,25,7,31,0.00
2013-1-26,44.3,42.4,40.6,42.0,39.7,38.0,95,90,81,30.20,30.01,27,8,29,0.00
2013-1-27,42.1,41.2,39.7,41.0,39.4,37.0,96,93,91,30.20,30.13,19,9,23,0.00
2013-1-28,44.0,42.1,40.2,40.0,38.4,36.0,94,87,79,30.23,30.14,14,6,16,0.00
2013-1-29,47.1,43.8,41.5,44.0,41.0,39.0,95,90,80,30.47,30.22,20,5,24,0.00
2013-1-30,45.0,43.3,41.7,45.0,42.9,42.0,99,98,95,30.54,30.47,19,7,25,0.00
2013-1-31,48.8,45.1,42.3,46.0,44.3,42.0,99,97,89,30.54,30.44,20,10,25,0.00